createdAt,value
2022-08-02T00:00:55.520Z,21.60
2022-08-02T00:03:25.032Z,21.60
2022-08-02T00:05:55.614Z,21.60
2022-08-02T00:08:24.742Z,21.60
2022-08-02T00:10:53.853Z,21.60
2022-08-02T00:13:22.982Z,21.70
2022-08-02T00:15:52.139Z,21.70
2022-08-02T00:18:21.334Z,21.70
2022-08-02T00:20:50.614Z,21.70
2022-08-02T00:23:21.091Z,21.70
2022-08-02T00:25:55.561Z,21.70
2022-08-02T00:28:27.304Z,21.70
2022-08-02T00:30:58.262Z,21.70
2022-08-02T00:34:26.361Z,21.70
2022-08-02T00:36:17.562Z,21.70
2022-08-02T00:38:48.833Z,21.70
2022-08-02T00:41:19.697Z,21.70
2022-08-02T00:43:49.659Z,21.70
2022-08-02T00:46:19.743Z,21.70
2022-08-02T00:48:49.040Z,21.70
2022-08-02T00:51:18.986Z,21.70
2022-08-02T00:53:49.735Z,21.70
2022-08-02T00:56:18.778Z,21.70
2022-08-02T00:58:47.949Z,21.70
2022-08-02T01:01:17.508Z,21.70
2022-08-02T01:03:46.728Z,21.70
2022-08-02T01:06:15.788Z,21.70
2022-08-02T01:08:44.941Z,21.70
2022-08-02T01:11:15.533Z,21.70
2022-08-02T01:13:44.712Z,21.70
2022-08-02T01:16:17.559Z,21.70
2022-08-02T01:18:54.284Z,21.70
2022-08-02T01:21:39.390Z,21.70
2022-08-02T01:24:22.445Z,21.70
2022-08-02T01:27:04.249Z,21.70
2022-08-02T01:29:37.925Z,21.70
2022-08-02T01:32:11.971Z,21.70
2022-08-02T01:34:46.200Z,21.70
2022-08-02T01:37:20.042Z,21.60
2022-08-02T01:39:55.692Z,21.70
2022-08-02T01:42:28.350Z,21.70
2022-08-02T01:45:00.218Z,21.70
2022-08-02T01:47:32.674Z,21.70
2022-08-02T01:50:03.611Z,21.70
2022-08-02T01:52:36.852Z,21.70
2022-08-02T01:55:09.920Z,21.70
2022-08-02T01:57:51.481Z,21.70
2022-08-02T02:00:23.790Z,21.70
2022-08-02T02:02:56.642Z,21.70
2022-08-02T02:05:28.905Z,21.70
2022-08-02T02:08:00.057Z,21.70
2022-08-02T02:10:31.010Z,21.70
2022-08-02T02:13:03.652Z,21.70
2022-08-02T02:15:35.384Z,21.70
2022-08-02T02:18:11.221Z,21.70
2022-08-02T02:20:44.212Z,21.70
2022-08-02T02:23:14.199Z,21.70
2022-08-02T02:25:46.729Z,21.70
2022-08-02T02:28:22.270Z,21.70
2022-08-02T02:30:55.894Z,21.70
2022-08-02T02:33:29.344Z,21.60
2022-08-02T02:36:00.690Z,21.70
2022-08-02T02:38:33.400Z,21.60
2022-08-02T02:41:06.832Z,21.70
2022-08-02T02:43:39.332Z,21.60
2022-08-02T02:46:11.200Z,21.60
2022-08-02T02:48:41.088Z,21.60
2022-08-02T02:51:13.836Z,21.60
2022-08-02T02:54:30.196Z,21.70
2022-08-02T02:56:35.554Z,21.70
2022-08-02T02:59:04.995Z,21.60
2022-08-02T03:01:56.981Z,21.60
2022-08-02T03:04:26.387Z,21.60
2022-08-02T03:06:55.720Z,21.60
2022-08-02T03:09:24.925Z,21.60
2022-08-02T03:11:56.264Z,21.50
2022-08-02T03:14:25.291Z,21.50
2022-08-02T03:16:56.307Z,21.50
2022-08-02T03:19:25.371Z,21.50
2022-08-02T03:22:02.451Z,21.60
2022-08-02T03:24:31.472Z,21.50
2022-08-02T03:27:00.604Z,21.50
2022-08-02T03:29:34.275Z,21.50
2022-08-02T03:32:06.029Z,21.60
2022-08-02T03:34:35.290Z,21.60
2022-08-02T03:37:04.717Z,21.60
2022-08-02T03:39:34.408Z,21.60
2022-08-02T03:42:03.587Z,21.60
2022-08-02T03:44:34.302Z,21.60
2022-08-02T03:47:07.094Z,21.60
2022-08-02T03:49:37.829Z,21.50
2022-08-02T03:52:08.521Z,21.50
2022-08-02T03:54:45.624Z,21.50
2022-08-02T03:57:15.390Z,21.50
2022-08-02T03:59:45.457Z,21.40
2022-08-02T04:02:15.967Z,21.40
2022-08-02T04:04:45.022Z,21.40
2022-08-02T04:07:14.153Z,21.40
2022-08-02T04:09:43.198Z,21.50
2022-08-02T04:12:12.642Z,21.50
2022-08-02T04:14:42.255Z,21.40
2022-08-02T04:17:14.087Z,21.40
2022-08-02T04:19:48.112Z,21.50
2022-08-02T04:22:20.050Z,21.40
2022-08-02T04:24:53.057Z,21.40
2022-08-02T04:27:49.890Z,21.50
2022-08-02T04:30:17.305Z,21.50
2022-08-02T04:32:47.217Z,21.50
2022-08-02T04:35:19.879Z,21.50
2022-08-02T04:38:05.750Z,21.50
2022-08-02T04:40:39.756Z,21.50
2022-08-02T04:43:09.127Z,21.50
2022-08-02T04:45:38.783Z,21.50
2022-08-02T04:48:08.520Z,21.50
2022-08-02T04:50:39.046Z,21.50
2022-08-02T04:53:08.376Z,21.50
2022-08-02T04:55:37.421Z,21.50
2022-08-02T04:58:23.722Z,21.50
2022-08-02T05:00:55.772Z,21.60
2022-08-02T05:03:24.820Z,21.60
2022-08-02T05:05:55.323Z,21.60
2022-08-02T05:08:24.514Z,21.60
2022-08-02T05:10:53.574Z,21.60
2022-08-02T05:13:22.672Z,21.50
2022-08-02T05:15:51.809Z,21.60
2022-08-02T05:18:20.978Z,21.60
2022-08-02T05:20:50.887Z,21.60
2022-08-02T05:23:22.664Z,21.60
2022-08-02T05:25:51.739Z,21.60
2022-08-02T05:28:22.083Z,21.60
2022-08-02T05:30:51.168Z,21.60
2022-08-02T05:33:20.505Z,21.60
2022-08-02T05:35:49.531Z,21.60
2022-08-02T05:38:18.648Z,21.60
2022-08-02T05:40:55.679Z,21.60
2022-08-02T05:43:24.808Z,21.60
2022-08-02T05:45:55.149Z,21.60
2022-08-02T05:48:30.869Z,21.60
2022-08-02T05:51:05.465Z,21.60
2022-08-02T05:53:40.178Z,21.60
2022-08-02T05:56:24.091Z,21.60
2022-08-02T05:58:58.111Z,21.60
2022-08-02T06:01:33.176Z,21.60
2022-08-02T06:04:03.260Z,21.60
2022-08-02T06:06:34.659Z,21.60
2022-08-02T06:09:06.844Z,21.60
2022-08-02T06:11:39.609Z,21.60
2022-08-02T06:14:09.756Z,21.60
2022-08-02T06:16:42.470Z,21.60
2022-08-02T06:19:13.546Z,21.50
2022-08-02T06:22:31.512Z,21.50
2022-08-02T06:24:34.736Z,21.50
2022-08-02T06:27:05.533Z,21.50
2022-08-02T06:29:38.964Z,21.50
2022-08-02T06:32:09.861Z,21.50
2022-08-02T06:34:39.506Z,21.50
2022-08-02T06:37:16.094Z,21.50
2022-08-02T06:39:47.385Z,21.50
2022-08-02T06:42:25.639Z,21.60
2022-08-02T06:44:58.312Z,21.60
2022-08-02T06:47:28.075Z,21.60
2022-08-02T06:49:58.419Z,21.60
2022-08-02T06:52:30.442Z,21.60
2022-08-02T06:55:01.604Z,21.50
2022-08-02T06:57:33.451Z,21.50
2022-08-02T07:00:05.065Z,21.50
2022-08-02T07:02:35.847Z,21.50
2022-08-02T07:05:05.779Z,21.60
2022-08-02T07:07:35.173Z,21.60
2022-08-02T07:10:04.437Z,21.60
2022-08-02T07:12:37.427Z,21.70
2022-08-02T07:15:10.173Z,21.70
2022-08-02T07:17:39.252Z,21.80
2022-08-02T07:20:10.861Z,21.80
2022-08-02T07:22:39.915Z,21.80
2022-08-02T07:25:09.799Z,21.90
2022-08-02T07:27:40.401Z,21.80
2022-08-02T07:30:10.604Z,21.80
2022-08-02T07:32:40.313Z,21.80
2022-08-02T07:35:10.350Z,21.80
2022-08-02T07:37:55.153Z,21.80
2022-08-02T07:40:27.501Z,21.80
2022-08-02T07:43:03.406Z,21.80
2022-08-02T07:45:36.035Z,21.80
2022-08-02T07:48:06.337Z,21.80
2022-08-02T07:50:36.044Z,21.80
2022-08-02T07:53:05.158Z,21.80
2022-08-02T07:55:40.281Z,21.80
2022-08-02T07:58:13.961Z,21.70
2022-08-02T08:00:44.365Z,21.70
2022-08-02T08:03:14.145Z,21.70
2022-08-02T08:05:43.223Z,21.70
2022-08-02T08:08:17.302Z,21.70
2022-08-02T08:10:46.848Z,21.70
2022-08-02T08:13:17.586Z,21.60
2022-08-02T08:15:51.604Z,21.70
2022-08-02T08:18:22.639Z,21.70
2022-08-02T08:20:52.059Z,21.70
2022-08-02T08:23:21.208Z,21.70
2022-08-02T08:25:50.282Z,21.80
2022-08-02T08:28:20.726Z,21.80
2022-08-02T08:30:49.763Z,21.80
2022-08-02T08:33:18.912Z,21.80
2022-08-02T08:35:47.950Z,21.80
2022-08-02T08:38:16.984Z,21.80
2022-08-02T08:40:46.068Z,21.80
2022-08-02T08:43:15.226Z,21.80
2022-08-02T08:45:55.952Z,21.80
2022-08-02T08:48:31.276Z,21.80
2022-08-02T08:51:08.249Z,21.80
2022-08-02T08:53:43.477Z,21.80
2022-08-02T08:56:16.337Z,21.90
2022-08-02T08:58:47.670Z,21.90
2022-08-02T09:01:18.588Z,22.00
2022-08-02T09:03:47.721Z,22.00
2022-08-02T09:06:17.178Z,22.00
2022-08-02T09:08:46.337Z,22.10
2022-08-02T09:11:16.848Z,22.10
2022-08-02T09:13:53.721Z,22.20
2022-08-02T09:16:35.894Z,22.10
2022-08-02T09:19:20.263Z,22.10
2022-08-02T09:21:51.150Z,22.20
2022-08-02T09:24:22.460Z,22.20
2022-08-02T09:26:52.084Z,22.20
2022-08-02T09:29:25.531Z,22.20
2022-08-02T09:32:04.432Z,22.20
2022-08-02T09:34:46.146Z,22.20
2022-08-02T09:37:25.481Z,22.30
2022-08-02T09:39:58.029Z,22.30
2022-08-02T09:42:30.718Z,22.40
2022-08-02T09:45:01.758Z,22.60
2022-08-02T09:47:37.414Z,22.80
2022-08-02T09:50:09.896Z,22.90
2022-08-02T09:52:44.733Z,23.00
2022-08-02T09:55:14.479Z,23.10
2022-08-02T09:57:44.192Z,23.20
2022-08-02T10:00:37.122Z,23.30
2022-08-02T10:03:21.737Z,23.30
2022-08-02T10:05:55.513Z,23.30
2022-08-02T10:08:24.843Z,23.40
2022-08-02T10:11:00.643Z,23.50
2022-08-02T10:13:31.659Z,23.60
2022-08-02T10:16:00.684Z,23.70
2022-08-02T10:18:40.710Z,23.70
2022-08-02T10:21:15.474Z,23.90
2022-08-02T10:23:46.694Z,24.10
2022-08-02T10:26:18.303Z,24.30
2022-08-02T10:28:51.233Z,24.50
2022-08-02T10:31:29.647Z,24.60
2022-08-02T10:34:02.621Z,24.70
2022-08-02T10:36:33.762Z,24.80
2022-08-02T10:39:05.198Z,24.90
2022-08-02T10:41:48.931Z,25.10
2022-08-02T10:44:29.111Z,25.30
2022-08-02T10:47:20.699Z,25.50
2022-08-02T10:49:51.769Z,25.80
2022-08-02T10:52:21.862Z,26.10
2022-08-02T10:54:56.767Z,26.20
2022-08-02T10:57:27.729Z,26.30
2022-08-02T10:59:59.379Z,26.30
2022-08-02T11:02:37.469Z,26.30
2022-08-02T11:05:16.612Z,26.40
2022-08-02T11:07:49.312Z,26.50
2022-08-02T11:10:39.747Z,26.70
2022-08-02T11:13:11.771Z,26.80
2022-08-02T11:16:01.187Z,26.90
2022-08-02T11:19:06.688Z,27.00
2022-08-02T11:21:38.069Z,27.00
2022-08-02T11:24:28.743Z,26.80
2022-08-02T11:26:59.038Z,26.70
2022-08-02T11:29:39.645Z,26.60
2022-08-02T11:32:10.585Z,26.50
2022-08-02T11:34:40.675Z,26.50
2022-08-02T11:37:11.635Z,26.50
2022-08-02T11:39:40.683Z,26.50
2022-08-02T11:42:10.218Z,26.50
2022-08-02T11:44:43.908Z,26.50
2022-08-02T11:47:14.224Z,26.50
2022-08-02T11:49:44.825Z,26.60
2022-08-02T11:52:15.619Z,26.70
2022-08-02T11:54:45.439Z,26.80
2022-08-02T11:57:20.075Z,26.80
2022-08-02T11:59:51.324Z,26.80
2022-08-02T12:02:21.959Z,26.80
2022-08-02T12:04:58.005Z,26.90
2022-08-02T12:07:34.876Z,27.00
2022-08-02T12:10:08.495Z,26.90
2022-08-02T12:12:49.229Z,27.00
2022-08-02T12:15:34.263Z,27.00
2022-08-02T12:18:21.061Z,27.00
2022-08-02T12:20:50.256Z,27.10
2022-08-02T12:23:20.879Z,27.10
2022-08-02T12:26:01.936Z,27.10
2022-08-02T12:28:35.739Z,27.10
2022-08-02T12:31:04.942Z,27.10
2022-08-02T12:33:47.003Z,27.20
2022-08-02T12:36:17.446Z,27.20
2022-08-02T12:38:55.014Z,27.30
2022-08-02T12:41:31.570Z,27.40
2022-08-02T12:44:02.182Z,27.30
2022-08-02T12:46:32.043Z,27.40
2022-08-02T12:49:19.061Z,27.40
2022-08-02T12:51:56.299Z,27.50
2022-08-02T12:54:43.582Z,27.60
2022-08-02T12:57:13.535Z,27.60
2022-08-02T12:59:47.809Z,27.60
2022-08-02T13:02:18.621Z,27.50
2022-08-02T13:04:50.379Z,27.40
2022-08-02T13:07:20.326Z,27.40
2022-08-02T13:09:50.813Z,27.40
2022-08-02T13:12:31.778Z,27.40
2022-08-02T13:15:00.881Z,27.50
2022-08-02T13:17:30.064Z,27.50
2022-08-02T13:19:59.141Z,27.50
2022-08-02T13:22:28.729Z,27.50
2022-08-02T13:24:59.455Z,27.60
2022-08-02T13:27:29.407Z,27.60
2022-08-02T13:29:59.340Z,27.70
2022-08-02T13:32:29.255Z,27.80
2022-08-02T13:34:59.365Z,27.90
2022-08-02T13:37:28.506Z,28.00
2022-08-02T13:40:21.117Z,28.00
2022-08-02T13:42:48.111Z,28.00
2022-08-02T13:45:17.418Z,28.00
2022-08-02T13:47:57.391Z,27.90
2022-08-02T13:50:34.056Z,27.80
2022-08-02T13:53:03.199Z,27.80
2022-08-02T13:55:33.613Z,27.80
2022-08-02T13:58:04.951Z,27.80
2022-08-02T14:00:34.894Z,27.80
2022-08-02T14:03:08.160Z,27.80
2022-08-02T14:05:48.287Z,27.80
2022-08-02T14:08:19.296Z,27.70
2022-08-02T14:10:50.725Z,27.70
2022-08-02T14:13:20.171Z,27.60
2022-08-02T14:15:49.375Z,27.70
2022-08-02T14:18:18.469Z,27.70
2022-08-02T14:20:47.719Z,27.70
2022-08-02T14:23:16.796Z,27.70
2022-08-02T14:25:45.859Z,27.80
2022-08-02T14:28:16.416Z,27.80
2022-08-02T14:30:45.589Z,27.70
2022-08-02T14:33:14.661Z,27.70
2022-08-02T14:35:43.766Z,27.80
2022-08-02T14:38:13.492Z,27.80
2022-08-02T14:40:42.620Z,27.90
2022-08-02T14:43:12.833Z,27.90
2022-08-02T14:45:44.802Z,27.90
2022-08-02T14:48:13.866Z,27.80
2022-08-02T14:50:42.966Z,27.80
2022-08-02T14:53:13.145Z,27.70
2022-08-02T14:55:43.328Z,27.70
2022-08-02T14:58:12.810Z,27.70
2022-08-02T15:00:43.822Z,27.60
2022-08-02T15:03:15.053Z,27.60
2022-08-02T15:05:49.621Z,27.50
2022-08-02T15:08:21.361Z,27.50
2022-08-02T15:10:51.594Z,27.50
2022-08-02T15:13:20.691Z,27.50
2022-08-02T15:15:50.307Z,27.40
2022-08-02T15:18:20.745Z,27.40
2022-08-02T15:20:57.795Z,27.40
2022-08-02T15:23:34.863Z,27.40
2022-08-02T15:26:07.856Z,27.40
2022-08-02T15:28:39.783Z,27.40
2022-08-02T15:31:08.850Z,27.40
2022-08-02T15:33:39.503Z,27.40
2022-08-02T15:36:08.961Z,27.40
2022-08-02T15:38:38.232Z,27.40
2022-08-02T15:41:07.517Z,27.40
2022-08-02T15:43:45.563Z,27.50
2022-08-02T15:46:30.762Z,27.40
2022-08-02T15:49:04.016Z,27.40
2022-08-02T15:51:33.141Z,27.40
2022-08-02T15:54:02.338Z,27.40
2022-08-02T15:56:31.441Z,27.40
2022-08-02T15:59:00.573Z,27.40
2022-08-02T16:01:37.414Z,27.40
2022-08-02T16:04:09.540Z,27.40
2022-08-02T16:06:38.694Z,27.40
2022-08-02T16:09:07.773Z,27.40
2022-08-02T16:11:36.953Z,27.30
2022-08-02T16:14:09.659Z,27.40
2022-08-02T16:16:40.424Z,27.30
2022-08-02T16:19:37.474Z,27.20
2022-08-02T16:21:59.997Z,27.20
2022-08-02T16:24:29.158Z,27.20
2022-08-02T16:26:58.240Z,27.20
2022-08-02T16:29:28.426Z,27.10
2022-08-02T16:32:02.774Z,27.10
2022-08-02T16:34:50.709Z,27.10
2022-08-02T16:37:22.295Z,27.10
2022-08-02T16:39:51.383Z,27.10
2022-08-02T16:42:25.414Z,27.20
2022-08-02T16:44:55.051Z,27.20
2022-08-02T16:47:37.075Z,27.10
2022-08-02T16:50:14.864Z,27.10
2022-08-02T16:52:44.029Z,27.10
2022-08-02T16:55:13.721Z,27.10
2022-08-02T16:57:45.364Z,27.10
2022-08-02T17:00:19.616Z,27.00
2022-08-02T17:02:48.845Z,26.90
2022-08-02T17:05:21.014Z,26.90
2022-08-02T17:08:15.167Z,26.80
2022-08-02T17:10:39.433Z,26.80
2022-08-02T17:13:11.118Z,26.80
2022-08-02T17:16:17.259Z,26.80
2022-08-02T17:18:31.178Z,26.80
2022-08-02T17:21:04.227Z,26.80
2022-08-02T17:24:04.418Z,26.80
2022-08-02T17:26:25.361Z,26.80
2022-08-02T17:29:14.266Z,26.80
2022-08-02T17:32:02.389Z,26.80
2022-08-02T17:34:33.421Z,26.80
2022-08-02T17:37:06.062Z,26.80
2022-08-02T17:39:43.896Z,26.70
2022-08-02T17:42:23.013Z,26.70
2022-08-02T17:45:24.879Z,26.60
2022-08-02T17:48:04.709Z,26.60
2022-08-02T17:50:34.970Z,26.50
2022-08-02T17:53:06.630Z,26.50
2022-08-02T17:55:42.055Z,26.50
2022-08-02T17:58:12.716Z,26.40
2022-08-02T18:00:41.996Z,26.40
2022-08-02T18:03:14.285Z,26.40
2022-08-02T18:05:55.288Z,26.40
2022-08-02T18:08:26.011Z,26.40
2022-08-02T18:10:56.003Z,26.40
2022-08-02T18:13:25.394Z,26.40
2022-08-02T18:16:03.122Z,26.40
2022-08-02T18:18:33.133Z,26.40
2022-08-02T18:21:15.645Z,26.40
2022-08-02T18:23:58.714Z,26.30
2022-08-02T18:26:30.221Z,26.30
2022-08-02T18:29:00.365Z,26.30
2022-08-02T18:31:29.930Z,26.30
2022-08-02T18:34:08.953Z,26.20
2022-08-02T18:36:47.296Z,26.20
2022-08-02T18:39:18.487Z,26.10
2022-08-02T18:41:50.259Z,26.10
2022-08-02T18:44:19.675Z,26.10
2022-08-02T18:46:51.267Z,26.00
2022-08-02T18:49:22.586Z,26.00
2022-08-02T18:51:51.703Z,25.90
2022-08-02T18:54:26.813Z,25.90
2022-08-02T18:57:00.326Z,25.80
2022-08-02T18:59:29.423Z,25.80
2022-08-02T19:02:06.702Z,25.70
2022-08-02T19:04:35.745Z,25.70
2022-08-02T19:07:08.062Z,25.70
2022-08-02T19:09:40.208Z,25.60
2022-08-02T19:12:11.647Z,25.60
2022-08-02T19:14:41.131Z,25.60
2022-08-02T19:17:53.309Z,25.60
2022-08-02T19:19:59.686Z,25.60
2022-08-02T19:22:29.746Z,25.50
2022-08-02T19:25:01.654Z,25.50
2022-08-02T19:27:34.180Z,25.50
2022-08-02T19:30:03.872Z,25.40
2022-08-02T19:32:41.764Z,25.40
2022-08-02T19:35:29.778Z,25.30
2022-08-02T19:38:09.005Z,25.20
2022-08-02T19:40:41.960Z,25.20
2022-08-02T19:44:26.075Z,25.10
2022-08-02T19:46:00.886Z,25.10
2022-08-02T19:48:30.073Z,25.10
2022-08-02T19:51:00.745Z,25.00
2022-08-02T19:53:47.580Z,25.00
2022-08-02T19:56:25.397Z,24.90
2022-08-02T19:58:58.697Z,24.90
2022-08-02T20:01:39.493Z,24.80
2022-08-02T20:04:13.351Z,24.80
2022-08-02T20:06:46.026Z,24.70
2022-08-02T20:09:21.773Z,24.60
2022-08-02T20:11:54.796Z,24.60
2022-08-02T20:14:26.776Z,24.50
2022-08-02T20:16:57.289Z,24.40
2022-08-02T20:19:29.193Z,24.40
2022-08-02T20:22:00.140Z,24.30
2022-08-02T20:24:30.321Z,24.20
2022-08-02T20:27:01.073Z,24.20
2022-08-02T20:29:43.257Z,24.10
2022-08-02T20:35:11.015Z,24.00
2022-08-02T20:37:59.538Z,24.00
2022-08-02T20:40:31.200Z,23.90
2022-08-02T20:43:01.915Z,23.90
2022-08-02T20:45:31.409Z,23.90
2022-08-02T20:48:02.740Z,23.80
2022-08-02T20:50:52.199Z,23.80
2022-08-02T20:53:23.625Z,23.80
2022-08-02T20:55:56.517Z,23.70
2022-08-02T20:58:28.034Z,23.60
2022-08-02T21:00:59.461Z,23.60
2022-08-02T21:03:39.251Z,23.50
2022-08-02T21:06:10.068Z,23.50
2022-08-02T21:08:39.341Z,23.40
2022-08-02T21:11:12.762Z,23.40
2022-08-02T21:13:47.290Z,23.30
2022-08-02T21:16:33.939Z,23.30
2022-08-02T21:19:03.211Z,23.30
2022-08-02T21:21:38.894Z,23.30
2022-08-02T21:24:11.338Z,23.30
2022-08-02T21:26:41.968Z,23.20
2022-08-02T21:29:13.684Z,23.20
2022-08-02T21:31:43.572Z,23.20
2022-08-02T21:37:09.715Z,23.20
2022-08-02T21:39:39.326Z,23.20
2022-08-02T21:42:08.582Z,23.10
2022-08-02T21:44:39.350Z,23.10
2022-08-02T21:47:11.199Z,23.00
2022-08-02T21:50:09.670Z,23.00
2022-08-02T21:52:30.079Z,23.00
2022-08-02T21:54:59.177Z,22.90
2022-08-02T21:57:34.846Z,22.90
2022-08-02T22:00:10.764Z,22.80
2022-08-02T22:02:39.855Z,22.80
2022-08-02T22:05:13.313Z,22.70
2022-08-02T22:07:45.682Z,22.70
2022-08-02T22:10:15.085Z,22.70
2022-08-02T22:12:45.063Z,22.60
2022-08-02T22:15:15.623Z,22.60
2022-08-02T22:17:53.092Z,22.50
2022-08-02T22:20:23.200Z,22.50
2022-08-02T22:22:53.383Z,22.50
2022-08-02T22:25:36.304Z,22.40
2022-08-02T22:28:37.093Z,22.40
2022-08-02T22:31:00.239Z,22.30
2022-08-02T22:34:00.855Z,22.30
2022-08-02T22:36:31.166Z,22.20
2022-08-02T22:39:01.046Z,22.30
2022-08-02T22:42:01.186Z,22.20
2022-08-02T22:44:20.114Z,22.20
2022-08-02T22:46:50.800Z,22.20
2022-08-02T22:49:38.797Z,22.10
2022-08-02T22:52:10.712Z,22.10
2022-08-02T22:54:40.074Z,22.00
2022-08-02T22:57:11.373Z,22.00
2022-08-02T22:58:55.695Z,24.10
2022-08-02T22:59:03.125Z,23.20
2022-08-02T22:59:41.746Z,21.90
2022-08-02T23:02:13.156Z,21.90
2022-08-02T23:04:42.139Z,21.80
2022-08-02T23:07:11.106Z,21.80
2022-08-02T23:09:40.185Z,21.80
2022-08-02T23:12:09.553Z,21.80
2022-08-02T23:14:38.670Z,21.70
2022-08-02T23:17:26.801Z,21.70
2022-08-02T23:19:57.253Z,21.60
2022-08-02T23:22:30.022Z,21.60
2022-08-02T23:25:02.902Z,21.60
2022-08-02T23:27:33.077Z,21.50
2022-08-02T23:30:03.029Z,21.60
2022-08-02T23:32:33.151Z,21.50
2022-08-02T23:35:03.628Z,21.50
2022-08-02T23:37:59.248Z,21.50
2022-08-02T23:40:39.470Z,21.40
2022-08-02T23:43:13.611Z,21.40
2022-08-02T23:45:46.348Z,21.40
2022-08-02T23:48:15.851Z,21.40
2022-08-02T23:50:46.342Z,21.40
2022-08-02T23:53:15.443Z,21.40
2022-08-02T23:55:44.573Z,21.30
2022-08-02T23:58:14.117Z,21.40
